sensor_id;sensor_type;location;lat;lon;timestamp;P1;durP1;ratioP1;P2;durP2;ratioP2
18576;SDS011;9418;52.694;13.294;2022-08-21T00:01:21;6.47;;;5.87;;
18576;SDS011;9418;52.694;13.294;2022-08-21T00:03:49;6.50;;;6.00;;
18576;SDS011;9418;52.694;13.294;2022-08-21T00:06:16;6.30;;;5.80;;
18576;SDS011;9418;52.694;13.294;2022-08-21T00:08:43;6.77;;;5.87;;
18576;SDS011;9418;52.694;13.294;2022-08-21T00:11:12;6.73;;;6.13;;
18576;SDS011;9418;52.694;13.294;2022-08-21T00:13:40;6.23;;;5.60;;
18576;SDS011;9418;52.694;13.294;2022-08-21T00:16:07;5.80;;;5.40;;
18576;SDS011;9418;52.694;13.294;2022-08-21T00:18:34;5.93;;;5.40;;
18576;SDS011;9418;52.694;13.294;2022-08-21T00:21:01;7.23;;;6.53;;
18576;SDS011;9418;52.694;13.294;2022-08-21T00:23:27;6.20;;;5.77;;
18576;SDS011;9418;52.694;13.294;2022-08-21T00:25:54;7.37;;;6.60;;
18576;SDS011;9418;52.694;13.294;2022-08-21T00:28:22;5.50;;;5.17;;
18576;SDS011;9418;52.694;13.294;2022-08-21T00:30:48;6.20;;;5.80;;
18576;SDS011;9418;52.694;13.294;2022-08-21T00:33:15;6.80;;;6.20;;
18576;SDS011;9418;52.694;13.294;2022-08-21T00:35:42;13.17;;;5.93;;
18576;SDS011;9418;52.694;13.294;2022-08-21T00:38:09;6.77;;;6.27;;
18576;SDS011;9418;52.694;13.294;2022-08-21T00:40:37;5.87;;;5.47;;
18576;SDS011;9418;52.694;13.294;2022-08-21T00:43:07;6.77;;;6.10;;
18576;SDS011;9418;52.694;13.294;2022-08-21T00:45:38;7.33;;;6.77;;
18576;SDS011;9418;52.694;13.294;2022-08-21T00:48:05;7.60;;;6.13;;
18576;SDS011;9418;52.694;13.294;2022-08-21T00:50:33;7.03;;;6.07;;
18576;SDS011;9418;52.694;13.294;2022-08-21T00:53:03;10.60;;;6.83;;
18576;SDS011;9418;52.694;13.294;2022-08-21T00:55:33;7.53;;;6.57;;
18576;SDS011;9418;52.694;13.294;2022-08-21T00:58:01;11.60;;;6.13;;
18576;SDS011;9418;52.694;13.294;2022-08-21T01:00:30;6.93;;;6.33;;
18576;SDS011;9418;52.694;13.294;2022-08-21T01:03:01;9.00;;;7.13;;
18576;SDS011;9418;52.694;13.294;2022-08-21T01:05:31;6.70;;;6.07;;
18576;SDS011;9418;52.694;13.294;2022-08-21T01:07:58;11.07;;;6.13;;
18576;SDS011;9418;52.694;13.294;2022-08-21T01:10:25;7.73;;;6.20;;
18576;SDS011;9418;52.694;13.294;2022-08-21T01:12:52;11.00;;;5.73;;
18576;SDS011;9418;52.694;13.294;2022-08-21T01:15:22;6.23;;;5.67;;
18576;SDS011;9418;52.694;13.294;2022-08-21T01:17:50;5.87;;;5.40;;
18576;SDS011;9418;52.694;13.294;2022-08-21T01:20:18;6.20;;;5.60;;
18576;SDS011;9418;52.694;13.294;2022-08-21T01:22:46;6.17;;;5.67;;
18576;SDS011;9418;52.694;13.294;2022-08-21T01:25:13;7.90;;;6.20;;
18576;SDS011;9418;52.694;13.294;2022-08-21T01:27:41;8.80;;;5.03;;
18576;SDS011;9418;52.694;13.294;2022-08-21T01:30:10;6.40;;;5.77;;
18576;SDS011;9418;52.694;13.294;2022-08-21T01:32:40;8.83;;;5.60;;
18576;SDS011;9418;52.694;13.294;2022-08-21T01:35:07;7.73;;;4.73;;
18576;SDS011;9418;52.694;13.294;2022-08-21T01:37:34;5.00;;;4.60;;
18576;SDS011;9418;52.694;13.294;2022-08-21T01:40:03;5.90;;;4.50;;
18576;SDS011;9418;52.694;13.294;2022-08-21T01:42:31;7.27;;;4.53;;
18576;SDS011;9418;52.694;13.294;2022-08-21T01:44:58;7.63;;;4.10;;
18576;SDS011;9418;52.694;13.294;2022-08-21T01:47:25;5.17;;;3.97;;
18576;SDS011;9418;52.694;13.294;2022-08-21T01:49:52;5.67;;;4.43;;
18576;SDS011;9418;52.694;13.294;2022-08-21T01:52:18;5.87;;;4.07;;
18576;SDS011;9418;52.694;13.294;2022-08-21T01:54:45;4.43;;;3.80;;
18576;SDS011;9418;52.694;13.294;2022-08-21T01:57:13;4.30;;;3.80;;
18576;SDS011;9418;52.694;13.294;2022-08-21T01:59:40;4.00;;;3.70;;
18576;SDS011;9418;52.694;13.294;2022-08-21T02:02:07;6.37;;;3.83;;
18576;SDS011;9418;52.694;13.294;2022-08-21T02:04:34;13.63;;;4.33;;
18576;SDS011;9418;52.694;13.294;2022-08-21T02:07:00;3.73;;;3.40;;
18576;SDS011;9418;52.694;13.294;2022-08-21T02:09:27;9.03;;;4.17;;
18576;SDS011;9418;52.694;13.294;2022-08-21T02:11:54;4.63;;;4.20;;
18576;SDS011;9418;52.694;13.294;2022-08-21T02:14:22;7.60;;;3.87;;
18576;SDS011;9418;52.694;13.294;2022-08-21T02:16:49;3.60;;;3.30;;
18576;SDS011;9418;52.694;13.294;2022-08-21T02:19:15;6.27;;;4.40;;
18576;SDS011;9418;52.694;13.294;2022-08-21T02:21:42;4.20;;;3.80;;
18576;SDS011;9418;52.694;13.294;2022-08-21T02:24:11;5.97;;;4.03;;
18576;SDS011;9418;52.694;13.294;2022-08-21T02:26:38;3.80;;;3.50;;
18576;SDS011;9418;52.694;13.294;2022-08-21T02:29:05;4.30;;;3.90;;
18576;SDS011;9418;52.694;13.294;2022-08-21T02:31:33;4.30;;;3.53;;
18576;SDS011;9418;52.694;13.294;2022-08-21T02:34:00;6.13;;;3.87;;
18576;SDS011;9418;52.694;13.294;2022-08-21T02:36:26;3.77;;;3.53;;
18576;SDS011;9418;52.694;13.294;2022-08-21T02:38:53;8.83;;;4.03;;
18576;SDS011;9418;52.694;13.294;2022-08-21T02:41:21;9.17;;;3.73;;
18576;SDS011;9418;52.694;13.294;2022-08-21T02:43:48;4.83;;;3.93;;
18576;SDS011;9418;52.694;13.294;2022-08-21T02:46:15;5.53;;;3.90;;
18576;SDS011;9418;52.694;13.294;2022-08-21T02:48:45;5.60;;;3.77;;
18576;SDS011;9418;52.694;13.294;2022-08-21T02:51:13;7.10;;;3.47;;
18576;SDS011;9418;52.694;13.294;2022-08-21T02:53:42;4.33;;;3.93;;
18576;SDS011;9418;52.694;13.294;2022-08-21T02:56:10;4.13;;;3.70;;
18576;SDS011;9418;52.694;13.294;2022-08-21T02:58:40;3.80;;;3.50;;
18576;SDS011;9418;52.694;13.294;2022-08-21T03:01:08;4.57;;;3.53;;
18576;SDS011;9418;52.694;13.294;2022-08-21T03:03:35;4.47;;;3.67;;
18576;SDS011;9418;52.694;13.294;2022-08-21T03:06:04;4.60;;;4.30;;
18576;SDS011;9418;52.694;13.294;2022-08-21T03:08:33;8.37;;;5.27;;
18576;SDS011;9418;52.694;13.294;2022-08-21T03:11:00;3.90;;;3.60;;
18576;SDS011;9418;52.694;13.294;2022-08-21T03:13:26;6.27;;;3.60;;
18576;SDS011;9418;52.694;13.294;2022-08-21T03:15:53;4.73;;;3.50;;
18576;SDS011;9418;52.694;13.294;2022-08-21T03:18:22;8.90;;;3.67;;
18576;SDS011;9418;52.694;13.294;2022-08-21T03:20:49;3.73;;;3.50;;
18576;SDS011;9418;52.694;13.294;2022-08-21T03:23:17;7.57;;;3.20;;
18576;SDS011;9418;52.694;13.294;2022-08-21T03:25:45;3.40;;;3.13;;
18576;SDS011;9418;52.694;13.294;2022-08-21T03:28:13;8.73;;;3.40;;
18576;SDS011;9418;52.694;13.294;2022-08-21T03:30:42;3.90;;;3.00;;
18576;SDS011;9418;52.694;13.294;2022-08-21T03:33:10;3.67;;;2.80;;
18576;SDS011;9418;52.694;13.294;2022-08-21T03:35:37;5.63;;;2.87;;
18576;SDS011;9418;52.694;13.294;2022-08-21T03:38:03;2.90;;;2.70;;
18576;SDS011;9418;52.694;13.294;2022-08-21T03:40:31;2.90;;;2.70;;
18576;SDS011;9418;52.694;13.294;2022-08-21T03:42:58;5.03;;;2.83;;
18576;SDS011;9418;52.694;13.294;2022-08-21T03:45:25;3.97;;;2.93;;
18576;SDS011;9418;52.694;13.294;2022-08-21T03:47:53;3.10;;;2.80;;
18576;SDS011;9418;52.694;13.294;2022-08-21T03:50:22;3.97;;;2.30;;
18576;SDS011;9418;52.694;13.294;2022-08-21T03:52:49;4.57;;;2.50;;
18576;SDS011;9418;52.694;13.294;2022-08-21T03:55:16;4.07;;;2.87;;
18576;SDS011;9418;52.694;13.294;2022-08-21T03:57:44;4.20;;;3.00;;
18576;SDS011;9418;52.694;13.294;2022-08-21T04:00:11;10.80;;;2.97;;
18576;SDS011;9418;52.694;13.294;2022-08-21T04:02:39;4.00;;;2.70;;
18576;SDS011;9418;52.694;13.294;2022-08-21T04:05:07;8.30;;;2.80;;
18576;SDS011;9418;52.694;13.294;2022-08-21T04:07:34;3.10;;;2.27;;
18576;SDS011;9418;52.694;13.294;2022-08-21T04:10:01;5.53;;;2.50;;
18576;SDS011;9418;52.694;13.294;2022-08-21T04:12:28;3.80;;;2.57;;
18576;SDS011;9418;52.694;13.294;2022-08-21T04:14:56;5.80;;;2.20;;
18576;SDS011;9418;52.694;13.294;2022-08-21T04:17:23;4.83;;;2.50;;
18576;SDS011;9418;52.694;13.294;2022-08-21T04:19:49;4.77;;;2.73;;
18576;SDS011;9418;52.694;13.294;2022-08-21T04:22:16;5.53;;;2.60;;
18576;SDS011;9418;52.694;13.294;2022-08-21T04:24:43;3.43;;;2.50;;
18576;SDS011;9418;52.694;13.294;2022-08-21T04:27:09;3.33;;;2.47;;
18576;SDS011;9418;52.694;13.294;2022-08-21T04:29:36;2.47;;;2.27;;
18576;SDS011;9418;52.694;13.294;2022-08-21T04:32:04;8.23;;;2.63;;
18576;SDS011;9418;52.694;13.294;2022-08-21T04:34:31;2.70;;;2.00;;
18576;SDS011;9418;52.694;13.294;2022-08-21T04:36:57;6.23;;;2.83;;
18576;SDS011;9418;52.694;13.294;2022-08-21T04:39:24;5.97;;;2.53;;
18576;SDS011;9418;52.694;13.294;2022-08-21T04:41:50;7.20;;;2.57;;
18576;SDS011;9418;52.694;13.294;2022-08-21T04:44:17;4.27;;;2.17;;
18576;SDS011;9418;52.694;13.294;2022-08-21T04:46:43;7.43;;;2.80;;
18576;SDS011;9418;52.694;13.294;2022-08-21T04:49:11;10.07;;;2.40;;
18576;SDS011;9418;52.694;13.294;2022-08-21T04:51:38;3.70;;;2.47;;
18576;SDS011;9418;52.694;13.294;2022-08-21T04:54:07;6.33;;;2.40;;
18576;SDS011;9418;52.694;13.294;2022-08-21T04:56:37;3.60;;;2.20;;
18576;SDS011;9418;52.694;13.294;2022-08-21T04:59:11;3.93;;;2.20;;
18576;SDS011;9418;52.694;13.294;2022-08-21T05:01:41;4.17;;;3.07;;
18576;SDS011;9418;52.694;13.294;2022-08-21T05:04:10;8.70;;;2.00;;
18576;SDS011;9418;52.694;13.294;2022-08-21T05:06:43;5.13;;;2.17;;
18576;SDS011;9418;52.694;13.294;2022-08-21T05:09:11;4.73;;;2.03;;
18576;SDS011;9418;52.694;13.294;2022-08-21T05:11:40;3.07;;;2.20;;
18576;SDS011;9418;52.694;13.294;2022-08-21T05:14:07;4.67;;;2.10;;
18576;SDS011;9418;52.694;13.294;2022-08-21T05:16:34;3.20;;;1.90;;
18576;SDS011;9418;52.694;13.294;2022-08-21T05:19:01;3.03;;;2.17;;
18576;SDS011;9418;52.694;13.294;2022-08-21T05:21:29;4.43;;;2.30;;
18576;SDS011;9418;52.694;13.294;2022-08-21T05:23:55;5.83;;;3.57;;
18576;SDS011;9418;52.694;13.294;2022-08-21T05:26:22;5.30;;;2.20;;
18576;SDS011;9418;52.694;13.294;2022-08-21T05:28:48;3.33;;;1.80;;
18576;SDS011;9418;52.694;13.294;2022-08-21T05:31:15;3.03;;;2.70;;
18576;SDS011;9418;52.694;13.294;2022-08-21T05:33:41;4.70;;;2.33;;
18576;SDS011;9418;52.694;13.294;2022-08-21T05:36:08;3.40;;;2.23;;
18576;SDS011;9418;52.694;13.294;2022-08-21T05:38:36;5.53;;;2.10;;
18576;SDS011;9418;52.694;13.294;2022-08-21T05:41:03;7.13;;;2.80;;
18576;SDS011;9418;52.694;13.294;2022-08-21T05:43:29;8.37;;;2.97;;
18576;SDS011;9418;52.694;13.294;2022-08-21T05:45:57;1.80;;;1.70;;
18576;SDS011;9418;52.694;13.294;2022-08-21T05:48:24;12.57;;;2.53;;
18576;SDS011;9418;52.694;13.294;2022-08-21T05:50:51;5.07;;;2.13;;
18576;SDS011;9418;52.694;13.294;2022-08-21T05:53:19;3.63;;;2.13;;
18576;SDS011;9418;52.694;13.294;2022-08-21T05:55:48;1.93;;;1.83;;
18576;SDS011;9418;52.694;13.294;2022-08-21T05:58:16;5.20;;;2.20;;
18576;SDS011;9418;52.694;13.294;2022-08-21T06:00:46;2.33;;;2.13;;
18576;SDS011;9418;52.694;13.294;2022-08-21T06:03:14;4.43;;;2.40;;
18576;SDS011;9418;52.694;13.294;2022-08-21T06:05:42;3.83;;;2.03;;
18576;SDS011;9418;52.694;13.294;2022-08-21T06:08:10;4.00;;;1.77;;
18576;SDS011;9418;52.694;13.294;2022-08-21T06:10:37;5.30;;;2.50;;
18576;SDS011;9418;52.694;13.294;2022-08-21T06:13:05;12.13;;;2.70;;
18576;SDS011;9418;52.694;13.294;2022-08-21T06:15:31;11.33;;;2.17;;
18576;SDS011;9418;52.694;13.294;2022-08-21T06:17:58;3.43;;;1.93;;
18576;SDS011;9418;52.694;13.294;2022-08-21T06:20:25;2.87;;;1.47;;
18576;SDS011;9418;52.694;13.294;2022-08-21T06:22:52;6.57;;;2.43;;
18576;SDS011;9418;52.694;13.294;2022-08-21T06:25:18;4.03;;;1.93;;
18576;SDS011;9418;52.694;13.294;2022-08-21T06:27:45;2.70;;;1.80;;
18576;SDS011;9418;52.694;13.294;2022-08-21T06:30:13;4.97;;;2.10;;
18576;SDS011;9418;52.694;13.294;2022-08-21T06:32:40;5.13;;;1.90;;
18576;SDS011;9418;52.694;13.294;2022-08-21T06:35:07;4.13;;;2.10;;
18576;SDS011;9418;52.694;13.294;2022-08-21T06:37:34;4.07;;;1.53;;
18576;SDS011;9418;52.694;13.294;2022-08-21T06:40:01;6.93;;;2.17;;
18576;SDS011;9418;52.694;13.294;2022-08-21T06:42:28;6.07;;;1.63;;
18576;SDS011;9418;52.694;13.294;2022-08-21T06:44:54;3.00;;;1.90;;
18576;SDS011;9418;52.694;13.294;2022-08-21T06:47:25;6.70;;;1.80;;
18576;SDS011;9418;52.694;13.294;2022-08-21T06:49:51;4.10;;;2.07;;
18576;SDS011;9418;52.694;13.294;2022-08-21T06:52:18;2.93;;;1.90;;
18576;SDS011;9418;52.694;13.294;2022-08-21T06:54:45;3.17;;;2.00;;
18576;SDS011;9418;52.694;13.294;2022-08-21T06:57:11;4.83;;;2.10;;
18576;SDS011;9418;52.694;13.294;2022-08-21T06:59:38;3.60;;;1.80;;
18576;SDS011;9418;52.694;13.294;2022-08-21T07:02:04;2.60;;;1.33;;
18576;SDS011;9418;52.694;13.294;2022-08-21T07:04:32;5.50;;;2.23;;
18576;SDS011;9418;52.694;13.294;2022-08-21T07:06:59;2.67;;;1.63;;
18576;SDS011;9418;52.694;13.294;2022-08-21T07:09:26;4.67;;;2.07;;
18576;SDS011;9418;52.694;13.294;2022-08-21T07:11:53;7.07;;;2.33;;
18576;SDS011;9418;52.694;13.294;2022-08-21T07:14:21;8.13;;;2.00;;
18576;SDS011;9418;52.694;13.294;2022-08-21T07:16:48;5.60;;;1.60;;
18576;SDS011;9418;52.694;13.294;2022-08-21T07:22:39;3.53;;;1.60;;
18576;SDS011;9418;52.694;13.294;2022-08-21T07:25:07;4.77;;;1.60;;
18576;SDS011;9418;52.694;13.294;2022-08-21T07:27:34;7.80;;;2.27;;
18576;SDS011;9418;52.694;13.294;2022-08-21T07:30:01;4.30;;;1.90;;
18576;SDS011;9418;52.694;13.294;2022-08-21T07:32:28;2.43;;;1.60;;
18576;SDS011;9418;52.694;13.294;2022-08-21T07:34:54;4.40;;;2.13;;
18576;SDS011;9418;52.694;13.294;2022-08-21T07:37:21;2.20;;;1.17;;
18576;SDS011;9418;52.694;13.294;2022-08-21T07:39:49;2.90;;;1.70;;
18576;SDS011;9418;52.694;13.294;2022-08-21T07:42:16;6.57;;;1.47;;
18576;SDS011;9418;52.694;13.294;2022-08-21T07:44:43;2.90;;;1.43;;
18576;SDS011;9418;52.694;13.294;2022-08-21T07:47:10;4.63;;;1.67;;
18576;SDS011;9418;52.694;13.294;2022-08-21T07:49:36;8.00;;;1.77;;
18576;SDS011;9418;52.694;13.294;2022-08-21T07:52:03;2.30;;;1.50;;
18576;SDS011;9418;52.694;13.294;2022-08-21T07:54:30;3.43;;;1.30;;
18576;SDS011;9418;52.694;13.294;2022-08-21T07:56:57;3.13;;;1.63;;
18576;SDS011;9418;52.694;13.294;2022-08-21T07:59:24;4.93;;;1.80;;
18576;SDS011;9418;52.694;13.294;2022-08-21T08:01:51;6.33;;;1.83;;
18576;SDS011;9418;52.694;13.294;2022-08-21T08:04:17;2.73;;;1.40;;
18576;SDS011;9418;52.694;13.294;2022-08-21T08:06:44;1.80;;;1.20;;
18576;SDS011;9418;52.694;13.294;2022-08-21T08:09:10;2.90;;;1.77;;
18576;SDS011;9418;52.694;13.294;2022-08-21T08:11:37;2.27;;;1.40;;
18576;SDS011;9418;52.694;13.294;2022-08-21T08:14:09;3.43;;;1.60;;
18576;SDS011;9418;52.694;13.294;2022-08-21T08:16:36;8.27;;;1.80;;
18576;SDS011;9418;52.694;13.294;2022-08-21T08:19:03;2.07;;;1.70;;
18576;SDS011;9418;52.694;13.294;2022-08-21T08:21:29;6.03;;;2.10;;
18576;SDS011;9418;52.694;13.294;2022-08-21T08:23:57;4.13;;;1.87;;
18576;SDS011;9418;52.694;13.294;2022-08-21T08:26:24;4.37;;;1.50;;
18576;SDS011;9418;52.694;13.294;2022-08-21T08:28:50;4.43;;;2.00;;
18576;SDS011;9418;52.694;13.294;2022-08-21T08:31:18;6.07;;;1.57;;
18576;SDS011;9418;52.694;13.294;2022-08-21T08:33:44;4.50;;;2.20;;
18576;SDS011;9418;52.694;13.294;2022-08-21T08:36:12;3.80;;;1.60;;
18576;SDS011;9418;52.694;13.294;2022-08-21T08:38:40;9.63;;;1.80;;
18576;SDS011;9418;52.694;13.294;2022-08-21T08:41:08;1.50;;;1.40;;
18576;SDS011;9418;52.694;13.294;2022-08-21T08:43:38;4.57;;;2.07;;
18576;SDS011;9418;52.694;13.294;2022-08-21T08:46:09;12.10;;;2.30;;
18576;SDS011;9418;52.694;13.294;2022-08-21T08:48:41;7.10;;;1.83;;
18576;SDS011;9418;52.694;13.294;2022-08-21T08:51:15;2.10;;;1.43;;
18576;SDS011;9418;52.694;13.294;2022-08-21T08:53:47;4.37;;;1.53;;
18576;SDS011;9418;52.694;13.294;2022-08-21T08:56:18;2.87;;;1.60;;
18576;SDS011;9418;52.694;13.294;2022-08-21T08:58:48;9.00;;;2.20;;
18576;SDS011;9418;52.694;13.294;2022-08-21T09:01:19;3.73;;;1.40;;
18576;SDS011;9418;52.694;13.294;2022-08-21T09:03:47;2.87;;;1.50;;
18576;SDS011;9418;52.694;13.294;2022-08-21T09:06:19;2.40;;;1.63;;
18576;SDS011;9418;52.694;13.294;2022-08-21T09:08:54;4.57;;;2.43;;
18576;SDS011;9418;52.694;13.294;2022-08-21T09:11:37;5.23;;;2.03;;
18576;SDS011;9418;52.694;13.294;2022-08-21T09:14:12;5.33;;;1.87;;
18576;SDS011;9418;52.694;13.294;2022-08-21T09:16:46;3.93;;;1.63;;
18576;SDS011;9418;52.694;13.294;2022-08-21T09:19:26;6.33;;;2.90;;
18576;SDS011;9418;52.694;13.294;2022-08-21T09:22:03;7.17;;;2.30;;
18576;SDS011;9418;52.694;13.294;2022-08-21T09:24:38;4.60;;;1.93;;
18576;SDS011;9418;52.694;13.294;2022-08-21T09:27:13;1.93;;;1.57;;
18576;SDS011;9418;52.694;13.294;2022-08-21T09:29:44;4.40;;;1.37;;
18576;SDS011;9418;52.694;13.294;2022-08-21T09:32:14;3.07;;;1.43;;
18576;SDS011;9418;52.694;13.294;2022-08-21T09:34:53;10.57;;;1.90;;
18576;SDS011;9418;52.694;13.294;2022-08-21T09:37:22;2.87;;;1.40;;
18576;SDS011;9418;52.694;13.294;2022-08-21T09:39:49;1.67;;;1.10;;
18576;SDS011;9418;52.694;13.294;2022-08-21T09:42:21;5.60;;;1.60;;
18576;SDS011;9418;52.694;13.294;2022-08-21T09:44:49;6.53;;;1.80;;
18576;SDS011;9418;52.694;13.294;2022-08-21T09:47:31;13.10;;;2.50;;
18576;SDS011;9418;52.694;13.294;2022-08-21T09:50:08;7.43;;;2.70;;
18576;SDS011;9418;52.694;13.294;2022-08-21T09:52:41;2.63;;;1.70;;
18576;SDS011;9418;52.694;13.294;2022-08-21T09:55:13;2.17;;;1.73;;
18576;SDS011;9418;52.694;13.294;2022-08-21T09:58:03;4.10;;;1.77;;
18576;SDS011;9418;52.694;13.294;2022-08-21T10:00:29;6.53;;;2.07;;
18576;SDS011;9418;52.694;13.294;2022-08-21T10:03:08;5.20;;;1.67;;
18576;SDS011;9418;52.694;13.294;2022-08-21T10:05:37;2.77;;;1.67;;
18576;SDS011;9418;52.694;13.294;2022-08-21T10:08:05;2.00;;;1.50;;
18576;SDS011;9418;52.694;13.294;2022-08-21T10:10:43;4.33;;;1.97;;
18576;SDS011;9418;52.694;13.294;2022-08-21T10:13:11;5.07;;;1.80;;
18576;SDS011;9418;52.694;13.294;2022-08-21T10:15:46;2.13;;;1.63;;
18576;SDS011;9418;52.694;13.294;2022-08-21T10:18:20;4.73;;;1.73;;
18576;SDS011;9418;52.694;13.294;2022-08-21T10:20:52;4.53;;;1.40;;
18576;SDS011;9418;52.694;13.294;2022-08-21T10:23:29;2.37;;;1.60;;
18576;SDS011;9418;52.694;13.294;2022-08-21T10:26:05;2.80;;;1.60;;
18576;SDS011;9418;52.694;13.294;2022-08-21T10:28:40;5.53;;;1.80;;
18576;SDS011;9418;52.694;13.294;2022-08-21T10:31:12;4.43;;;1.30;;
18576;SDS011;9418;52.694;13.294;2022-08-21T10:33:43;4.57;;;1.53;;
18576;SDS011;9418;52.694;13.294;2022-08-21T10:36:21;3.50;;;1.60;;
18576;SDS011;9418;52.694;13.294;2022-08-21T10:38:58;6.53;;;1.47;;
18576;SDS011;9418;52.694;13.294;2022-08-21T10:41:37;1.37;;;1.27;;
18576;SDS011;9418;52.694;13.294;2022-08-21T10:44:17;7.17;;;1.30;;
18576;SDS011;9418;52.694;13.294;2022-08-21T10:46:54;1.70;;;1.40;;
18576;SDS011;9418;52.694;13.294;2022-08-21T10:49:30;3.90;;;1.40;;
18576;SDS011;9418;52.694;13.294;2022-08-21T10:52:17;3.37;;;1.17;;
18576;SDS011;9418;52.694;13.294;2022-08-21T10:54:57;1.83;;;0.93;;
18576;SDS011;9418;52.694;13.294;2022-08-21T10:57:29;1.60;;;1.30;;
18576;SDS011;9418;52.694;13.294;2022-08-21T11:00:07;2.17;;;1.20;;
18576;SDS011;9418;52.694;13.294;2022-08-21T11:02:37;5.17;;;1.00;;
18576;SDS011;9418;52.694;13.294;2022-08-21T11:05:10;1.40;;;1.30;;
18576;SDS011;9418;52.694;13.294;2022-08-21T11:07:43;1.70;;;1.47;;
18576;SDS011;9418;52.694;13.294;2022-08-21T11:10:14;3.03;;;1.00;;
18576;SDS011;9418;52.694;13.294;2022-08-21T11:12:47;1.20;;;1.10;;
18576;SDS011;9418;52.694;13.294;2022-08-21T11:15:24;3.60;;;1.40;;
18576;SDS011;9418;52.694;13.294;2022-08-21T11:17:57;3.17;;;1.20;;
18576;SDS011;9418;52.694;13.294;2022-08-21T11:20:31;1.00;;;0.90;;
18576;SDS011;9418;52.694;13.294;2022-08-21T11:23:05;1.57;;;0.97;;
18576;SDS011;9418;52.694;13.294;2022-08-21T11:25:39;1.30;;;1.10;;
18576;SDS011;9418;52.694;13.294;2022-08-21T11:28:11;1.77;;;0.90;;
18576;SDS011;9418;52.694;13.294;2022-08-21T11:30:45;5.87;;;1.17;;
18576;SDS011;9418;52.694;13.294;2022-08-21T11:33:27;1.13;;;1.00;;
18576;SDS011;9418;52.694;13.294;2022-08-21T11:36:02;2.50;;;0.93;;
18576;SDS011;9418;52.694;13.294;2022-08-21T11:38:40;1.40;;;1.00;;
18576;SDS011;9418;52.694;13.294;2022-08-21T11:41:13;2.80;;;1.23;;
18576;SDS011;9418;52.694;13.294;2022-08-21T11:43:48;3.60;;;0.87;;
18576;SDS011;9418;52.694;13.294;2022-08-21T11:46:20;1.40;;;0.90;;
18576;SDS011;9418;52.694;13.294;2022-08-21T11:48:59;2.20;;;1.00;;
18576;SDS011;9418;52.694;13.294;2022-08-21T11:51:52;5.43;;;1.20;;
18576;SDS011;9418;52.694;13.294;2022-08-21T11:54:27;2.57;;;1.23;;
18576;SDS011;9418;52.694;13.294;2022-08-21T11:57:00;1.37;;;0.80;;
18576;SDS011;9418;52.694;13.294;2022-08-21T11:59:32;1.50;;;0.80;;
18576;SDS011;9418;52.694;13.294;2022-08-21T12:02:03;3.00;;;1.30;;
18576;SDS011;9418;52.694;13.294;2022-08-21T12:04:42;1.20;;;1.00;;
18576;SDS011;9418;52.694;13.294;2022-08-21T12:07:13;2.83;;;1.43;;
18576;SDS011;9418;52.694;13.294;2022-08-21T12:09:53;1.33;;;0.93;;
18576;SDS011;9418;52.694;13.294;2022-08-21T12:12:23;1.73;;;1.60;;
18576;SDS011;9418;52.694;13.294;2022-08-21T12:17:50;3.33;;;1.43;;
18576;SDS011;9418;52.694;13.294;2022-08-21T12:20:22;7.73;;;1.53;;
18576;SDS011;9418;52.694;13.294;2022-08-21T12:23:02;2.77;;;1.30;;
18576;SDS011;9418;52.694;13.294;2022-08-21T12:25:37;3.13;;;1.17;;
18576;SDS011;9418;52.694;13.294;2022-08-21T12:28:06;6.17;;;1.07;;
18576;SDS011;9418;52.694;13.294;2022-08-21T12:30:37;1.17;;;0.70;;
18576;SDS011;9418;52.694;13.294;2022-08-21T12:33:17;2.10;;;1.30;;
18576;SDS011;9418;52.694;13.294;2022-08-21T12:35:47;1.43;;;1.30;;
18576;SDS011;9418;52.694;13.294;2022-08-21T12:38:17;2.50;;;1.20;;
18576;SDS011;9418;52.694;13.294;2022-08-21T12:40:49;2.70;;;0.90;;
18576;SDS011;9418;52.694;13.294;2022-08-21T12:43:20;3.47;;;1.27;;
18576;SDS011;9418;52.694;13.294;2022-08-21T12:45:51;2.30;;;1.70;;
18576;SDS011;9418;52.694;13.294;2022-08-21T12:48:18;2.90;;;1.60;;
18576;SDS011;9418;52.694;13.294;2022-08-21T12:50:49;4.93;;;1.03;;
18576;SDS011;9418;52.694;13.294;2022-08-21T12:53:24;4.60;;;1.37;;
18576;SDS011;9418;52.694;13.294;2022-08-21T12:55:55;3.73;;;1.20;;
18576;SDS011;9418;52.694;13.294;2022-08-21T12:58:26;1.20;;;1.00;;
18576;SDS011;9418;52.694;13.294;2022-08-21T13:01:01;5.23;;;1.30;;
18576;SDS011;9418;52.694;13.294;2022-08-21T13:03:30;5.80;;;1.53;;
18576;SDS011;9418;52.694;13.294;2022-08-21T13:06:00;3.37;;;1.40;;
18576;SDS011;9418;52.694;13.294;2022-08-21T13:08:29;4.77;;;1.70;;
18576;SDS011;9418;52.694;13.294;2022-08-21T13:11:01;4.60;;;1.63;;
18576;SDS011;9418;52.694;13.294;2022-08-21T13:13:29;5.23;;;1.90;;
18576;SDS011;9418;52.694;13.294;2022-08-21T13:15:57;6.43;;;1.60;;
18576;SDS011;9418;52.694;13.294;2022-08-21T13:18:26;3.73;;;2.70;;
18576;SDS011;9418;52.694;13.294;2022-08-21T13:21:02;7.03;;;4.10;;
18576;SDS011;9418;52.694;13.294;2022-08-21T13:23:31;1.97;;;1.73;;
18576;SDS011;9418;52.694;13.294;2022-08-21T13:25:57;2.80;;;1.63;;
18576;SDS011;9418;52.694;13.294;2022-08-21T13:28:31;3.90;;;1.17;;
18576;SDS011;9418;52.694;13.294;2022-08-21T13:30:59;6.00;;;2.27;;
18576;SDS011;9418;52.694;13.294;2022-08-21T13:33:27;2.27;;;1.70;;
18576;SDS011;9418;52.694;13.294;2022-08-21T13:35:58;2.83;;;1.40;;
18576;SDS011;9418;52.694;13.294;2022-08-21T13:38:30;2.70;;;1.60;;
18576;SDS011;9418;52.694;13.294;2022-08-21T13:40:59;10.53;;;2.50;;
18576;SDS011;9418;52.694;13.294;2022-08-21T13:43:32;3.40;;;1.60;;
18576;SDS011;9418;52.694;13.294;2022-08-21T13:46:01;2.50;;;1.10;;
18576;SDS011;9418;52.694;13.294;2022-08-21T13:48:32;3.67;;;1.90;;
18576;SDS011;9418;52.694;13.294;2022-08-21T13:51:00;7.80;;;1.30;;
18576;SDS011;9418;52.694;13.294;2022-08-21T13:53:29;3.20;;;1.63;;
18576;SDS011;9418;52.694;13.294;2022-08-21T13:55:57;2.90;;;1.40;;
18576;SDS011;9418;52.694;13.294;2022-08-21T13:58:25;7.93;;;1.90;;
18576;SDS011;9418;52.694;13.294;2022-08-21T14:00:55;6.50;;;4.50;;
18576;SDS011;9418;52.694;13.294;2022-08-21T14:03:26;12.43;;;2.77;;
18576;SDS011;9418;52.694;13.294;2022-08-21T14:05:57;3.57;;;1.67;;
18576;SDS011;9418;52.694;13.294;2022-08-21T14:08:25;2.70;;;1.20;;
18576;SDS011;9418;52.694;13.294;2022-08-21T14:10:57;9.60;;;1.70;;
18576;SDS011;9418;52.694;13.294;2022-08-21T14:13:28;3.60;;;1.60;;
18576;SDS011;9418;52.694;13.294;2022-08-21T14:16:01;4.93;;;3.00;;
18576;SDS011;9418;52.694;13.294;2022-08-21T14:18:42;6.20;;;1.80;;
18576;SDS011;9418;52.694;13.294;2022-08-21T14:21:10;4.27;;;1.43;;
18576;SDS011;9418;52.694;13.294;2022-08-21T14:23:38;3.87;;;2.20;;
18576;SDS011;9418;52.694;13.294;2022-08-21T14:26:06;1.80;;;1.13;;
18576;SDS011;9418;52.694;13.294;2022-08-21T14:28:34;4.53;;;1.60;;
18576;SDS011;9418;52.694;13.294;2022-08-21T14:31:13;5.30;;;1.60;;
18576;SDS011;9418;52.694;13.294;2022-08-21T14:33:41;5.10;;;2.00;;
18576;SDS011;9418;52.694;13.294;2022-08-21T14:36:08;2.10;;;1.67;;
18576;SDS011;9418;52.694;13.294;2022-08-21T14:38:36;4.73;;;2.23;;
18576;SDS011;9418;52.694;13.294;2022-08-21T14:41:14;4.40;;;2.00;;
18576;SDS011;9418;52.694;13.294;2022-08-21T14:43:43;5.10;;;1.90;;
18576;SDS011;9418;52.694;13.294;2022-08-21T14:46:23;3.63;;;1.83;;
18576;SDS011;9418;52.694;13.294;2022-08-21T14:48:51;2.50;;;1.83;;
18576;SDS011;9418;52.694;13.294;2022-08-21T14:51:18;8.67;;;2.07;;
18576;SDS011;9418;52.694;13.294;2022-08-21T14:53:44;3.43;;;2.07;;
18576;SDS011;9418;52.694;13.294;2022-08-21T14:56:12;3.67;;;1.97;;
18576;SDS011;9418;52.694;13.294;2022-08-21T14:58:40;8.30;;;3.27;;
18576;SDS011;9418;52.694;13.294;2022-08-21T15:01:11;5.67;;;2.50;;
18576;SDS011;9418;52.694;13.294;2022-08-21T15:03:41;8.50;;;1.90;;
18576;SDS011;9418;52.694;13.294;2022-08-21T15:06:08;6.43;;;2.63;;
18576;SDS011;9418;52.694;13.294;2022-08-21T15:08:36;3.40;;;1.57;;